createdAt,value
2017-11-20T00:00:25.625Z,6.55
2017-11-20T00:01:06.143Z,6.58
2017-11-20T00:01:46.683Z,6.58
2017-11-20T00:02:27.198Z,6.59
2017-11-20T00:03:07.706Z,6.54
2017-11-20T00:03:48.240Z,6.52
2017-11-20T00:04:28.766Z,6.56
2017-11-20T00:05:09.330Z,6.59
2017-11-20T00:05:49.870Z,6.55
2017-11-20T00:06:30.432Z,6.51
2017-11-20T00:07:10.973Z,6.49
2017-11-20T00:07:51.508Z,6.55
2017-11-20T00:08:32.035Z,6.52
2017-11-20T00:09:12.565Z,6.54
2017-11-20T00:09:53.107Z,6.52
2017-11-20T00:10:33.638Z,6.44
2017-11-20T00:11:14.150Z,6.49
2017-11-20T00:11:54.665Z,6.54
2017-11-20T00:12:35.183Z,6.51
2017-11-20T00:13:15.725Z,6.54
2017-11-20T00:13:56.226Z,6.54
2017-11-20T00:14:36.748Z,6.51
2017-11-20T00:15:17.270Z,6.52
2017-11-20T00:15:57.782Z,6.49
2017-11-20T00:16:38.304Z,6.54
2017-11-20T00:17:18.848Z,6.55
2017-11-20T00:17:59.384Z,6.58
2017-11-20T00:18:39.916Z,6.48
2017-11-20T00:19:20.444Z,6.52
2017-11-20T00:20:00.970Z,6.49
2017-11-20T00:20:41.502Z,6.41
2017-11-20T00:21:22.029Z,6.51
2017-11-20T00:22:02.565Z,6.51
2017-11-20T00:22:43.092Z,6.41
2017-11-20T00:23:23.604Z,6.48
2017-11-20T00:24:04.139Z,6.44
2017-11-20T00:24:44.672Z,6.43
2017-11-20T00:25:25.209Z,6.55
2017-11-20T00:26:05.737Z,6.48
2017-11-20T00:26:46.265Z,6.54
2017-11-20T00:27:26.795Z,6.56
2017-11-20T00:28:07.317Z,6.49
2017-11-20T00:28:47.841Z,6.44
2017-11-20T00:29:28.347Z,6.44
2017-11-20T00:30:08.882Z,6.56
2017-11-20T00:30:49.436Z,6.56
2017-11-20T00:31:29.969Z,6.48
2017-11-20T00:32:10.498Z,6.52
2017-11-20T00:32:51.023Z,6.51
2017-11-20T00:33:31.548Z,6.55
2017-11-20T00:34:12.085Z,6.55
2017-11-20T00:34:52.609Z,6.48
2017-11-20T00:35:33.132Z,6.46
2017-11-20T00:36:13.649Z,6.58
2017-11-20T00:36:54.184Z,6.52
2017-11-20T00:37:34.701Z,6.52
2017-11-20T00:38:15.225Z,6.52
2017-11-20T00:38:55.742Z,6.54
2017-11-20T00:39:36.266Z,6.55
2017-11-20T00:40:16.793Z,6.55
2017-11-20T00:40:57.339Z,6.49
2017-11-20T00:41:37.834Z,6.52
2017-11-20T00:42:18.351Z,6.54
2017-11-20T00:42:58.874Z,6.55
2017-11-20T00:43:39.396Z,6.55
2017-11-20T00:44:19.933Z,6.52
2017-11-20T00:45:00.451Z,6.54
2017-11-20T00:45:40.980Z,6.44
2017-11-20T00:46:21.519Z,6.46
2017-11-20T00:47:02.031Z,6.49
2017-11-20T00:47:42.528Z,6.44
2017-11-20T00:48:23.049Z,6.41
2017-11-20T00:49:03.570Z,6.43
2017-11-20T00:49:44.095Z,6.46
2017-11-20T00:50:24.628Z,6.49
2017-11-20T00:51:05.165Z,6.4
2017-11-20T00:51:45.692Z,6.36
2017-11-20T00:52:26.217Z,6.4
2017-11-20T00:53:06.744Z,6.38
2017-11-20T00:53:47.258Z,6.46
2017-11-20T00:54:27.797Z,6.51
2017-11-20T00:55:08.322Z,6.4
2017-11-20T00:55:48.848Z,6.46
2017-11-20T00:56:29.367Z,6.44
2017-11-20T00:57:09.884Z,6.4
2017-11-20T00:57:50.404Z,6.51
2017-11-20T00:58:30.916Z,6.51
2017-11-20T00:59:11.457Z,6.54
2017-11-20T00:59:51.986Z,6.46
2017-11-20T01:00:32.521Z,6.43
2017-11-20T01:01:13.055Z,6.52
2017-11-20T01:01:53.571Z,6.49
2017-11-20T01:02:34.104Z,6.56
2017-11-20T01:03:14.629Z,6.51
2017-11-20T01:03:55.166Z,6.49
2017-11-20T01:04:35.690Z,6.56
2017-11-20T01:05:16.214Z,6.51
2017-11-20T01:05:56.745Z,6.56
2017-11-20T01:06:37.278Z,6.54
2017-11-20T01:07:17.813Z,6.52
2017-11-20T01:07:58.332Z,6.51
2017-11-20T01:08:38.864Z,6.55
2017-11-20T01:09:19.484Z,6.52
2017-11-20T01:09:59.992Z,6.52
2017-11-20T01:10:40.508Z,6.56
2017-11-20T01:11:21.012Z,6.52
2017-11-20T01:12:01.533Z,6.52
2017-11-20T01:12:42.053Z,6.51
2017-11-20T01:13:22.582Z,6.51
2017-11-20T01:14:03.110Z,6.54
2017-11-20T01:14:43.632Z,6.49
2017-11-20T01:15:24.151Z,6.54
2017-11-20T01:16:04.682Z,6.55
2017-11-20T01:16:45.203Z,6.52
2017-11-20T01:17:25.743Z,6.49
2017-11-20T01:18:06.260Z,6.54
2017-11-20T01:18:46.784Z,6.51
2017-11-20T01:19:27.309Z,6.55
2017-11-20T01:20:07.821Z,6.46
2017-11-20T01:20:48.346Z,6.55
2017-11-20T01:21:28.877Z,6.46
2017-11-20T01:22:09.391Z,6.58
2017-11-20T01:22:49.921Z,6.49
2017-11-20T01:23:30.439Z,6.52
2017-11-20T01:24:10.963Z,6.61
2017-11-20T01:24:51.494Z,6.52
2017-11-20T01:25:32.007Z,6.52
2017-11-20T01:26:12.536Z,6.55
2017-11-20T01:26:53.044Z,6.56
2017-11-20T01:27:33.575Z,6.52
2017-11-20T01:28:14.064Z,6.56
2017-11-20T01:28:54.571Z,6.56
2017-11-20T01:29:35.098Z,6.58
2017-11-20T01:30:15.638Z,6.51
2017-11-20T01:30:56.159Z,6.55
2017-11-20T01:31:36.680Z,6.51
2017-11-20T01:32:17.201Z,6.52
2017-11-20T01:32:57.725Z,6.52
2017-11-20T01:33:38.253Z,6.48
2017-11-20T01:34:18.782Z,6.55
2017-11-20T01:34:59.299Z,6.55
2017-11-20T01:35:39.827Z,6.51
2017-11-20T01:36:20.349Z,6.48
2017-11-20T01:37:00.873Z,6.55
2017-11-20T01:37:41.483Z,6.61
2017-11-20T01:38:22.002Z,6.61
2017-11-20T01:39:02.538Z,6.56
2017-11-20T01:39:43.073Z,6.61
2017-11-20T01:40:23.587Z,6.58
2017-11-20T01:41:04.131Z,6.51
2017-11-20T01:41:44.643Z,6.59
2017-11-20T01:42:25.159Z,6.54
2017-11-20T01:43:05.698Z,6.56
2017-11-20T01:43:46.229Z,6.54
2017-11-20T01:44:26.743Z,6.55
2017-11-20T01:45:07.289Z,6.52
2017-11-20T01:45:47.816Z,6.61
2017-11-20T01:46:28.357Z,6.49
2017-11-20T01:47:08.888Z,6.51
2017-11-20T01:47:49.414Z,6.54
2017-11-20T01:48:29.945Z,6.51
2017-11-20T01:49:10.471Z,6.55
2017-11-20T01:49:50.990Z,6.55
2017-11-20T01:50:31.513Z,6.51
2017-11-20T01:51:12.042Z,6.51
2017-11-20T01:51:52.572Z,6.54
2017-11-20T01:52:33.092Z,6.49
2017-11-20T01:53:13.604Z,6.52
2017-11-20T01:53:54.137Z,6.49
2017-11-20T01:54:34.680Z,6.48
2017-11-20T01:55:15.209Z,6.52
2017-11-20T01:55:55.737Z,6.54
2017-11-20T01:56:36.264Z,6.54
2017-11-20T01:57:16.779Z,6.46
2017-11-20T01:57:57.327Z,6.54
2017-11-20T01:58:37.859Z,6.52
2017-11-20T01:59:18.399Z,6.49
2017-11-20T01:59:58.937Z,6.46
2017-11-20T02:00:39.456Z,6.49
2017-11-20T02:01:20.019Z,6.48
2017-11-20T02:02:00.523Z,6.41
2017-11-20T02:02:41.058Z,6.48
2017-11-20T02:03:21.584Z,6.48
2017-11-20T02:04:02.114Z,6.43
2017-11-20T02:04:42.667Z,6.41
2017-11-20T02:05:23.155Z,6.41
2017-11-20T02:06:03.689Z,6.43
2017-11-20T02:06:44.212Z,6.46
2017-11-20T02:07:24.755Z,6.34
2017-11-20T02:08:05.270Z,6.38
2017-11-20T02:08:45.800Z,6.44
2017-11-20T02:09:26.325Z,6.37
2017-11-20T02:10:06.845Z,6.49
2017-11-20T02:10:47.390Z,6.36
2017-11-20T02:11:27.919Z,6.41
2017-11-20T02:12:08.432Z,6.4
2017-11-20T02:12:48.964Z,6.4
2017-11-20T02:13:29.485Z,6.4
2017-11-20T02:14:10.007Z,6.37
2017-11-20T02:14:50.517Z,6.4
2017-11-20T02:15:31.047Z,6.44
2017-11-20T02:16:11.551Z,6.4
2017-11-20T02:16:52.079Z,6.38
2017-11-20T02:17:32.610Z,6.41
2017-11-20T02:18:13.138Z,6.38
2017-11-20T02:18:53.713Z,6.34
2017-11-20T02:19:34.250Z,6.31
2017-11-20T02:20:14.782Z,6.33
2017-11-20T02:20:55.314Z,6.3
2017-11-20T02:21:35.833Z,6.3
2017-11-20T02:22:16.362Z,6.28
2017-11-20T02:22:56.902Z,6.31
2017-11-20T02:23:37.423Z,6.25
2017-11-20T02:24:17.947Z,6.3
2017-11-20T02:24:58.472Z,6.3
2017-11-20T02:25:38.994Z,6.22
2017-11-20T02:26:19.512Z,6.3
2017-11-20T02:27:00.029Z,6.27
2017-11-20T02:27:40.578Z,6.27
2017-11-20T02:28:21.083Z,6.25
2017-11-20T02:29:01.618Z,6.33
2017-11-20T02:29:42.152Z,6.27
2017-11-20T02:30:22.680Z,6.33
2017-11-20T02:31:03.209Z,6.3
2017-11-20T02:31:43.742Z,6.27
2017-11-20T02:32:24.271Z,6.27
2017-11-20T02:33:04.803Z,6.22
2017-11-20T02:33:45.405Z,6.21
2017-11-20T02:34:25.943Z,6.27
2017-11-20T02:35:06.488Z,6.12
2017-11-20T02:35:47.014Z,6.27
2017-11-20T02:36:27.542Z,6.21
2017-11-20T02:37:08.080Z,6.25
2017-11-20T02:37:48.607Z,6.17
2017-11-20T02:38:29.128Z,6.15
2017-11-20T02:39:09.657Z,6.18
2017-11-20T02:39:50.160Z,6.15
2017-11-20T02:40:30.691Z,6.15
2017-11-20T02:41:11.208Z,6.22
2017-11-20T02:41:51.727Z,6.12
2017-11-20T02:42:32.254Z,6.12
2017-11-20T02:43:12.908Z,6.12
2017-11-20T02:43:53.412Z,6.14
2017-11-20T02:44:33.946Z,6.17
2017-11-20T02:45:14.466Z,6.08
2017-11-20T02:45:55.008Z,6.14
2017-11-20T02:46:35.532Z,6.08
2017-11-20T02:47:16.034Z,5.94
2017-11-20T02:47:56.550Z,6.01
2017-11-20T02:48:37.055Z,6
2017-11-20T02:49:17.548Z,6.11
2017-11-20T02:49:58.091Z,6.01
2017-11-20T02:50:38.614Z,6.04
2017-11-20T02:51:19.141Z,6
2017-11-20T02:51:59.677Z,6.03
2017-11-20T02:52:40.206Z,6.03
2017-11-20T02:53:20.739Z,5.89
2017-11-20T02:54:01.318Z,6
2017-11-20T02:54:41.858Z,5.97
2017-11-20T02:55:22.381Z,5.85
2017-11-20T02:56:02.902Z,5.85
2017-11-20T02:56:43.423Z,5.86
2017-11-20T02:57:23.976Z,5.79
2017-11-20T02:58:04.532Z,5.85
2017-11-20T02:58:45.071Z,5.9
2017-11-20T02:59:25.571Z,5.83
2017-11-20T03:00:06.092Z,5.81
2017-11-20T03:00:46.609Z,5.85
2017-11-20T03:01:27.125Z,5.75
2017-11-20T03:02:07.648Z,5.83
2017-11-20T03:02:48.145Z,5.75
2017-11-20T03:03:28.676Z,5.86
2017-11-20T03:04:09.188Z,5.82
2017-11-20T03:04:49.708Z,5.83
2017-11-20T03:05:30.226Z,5.81
2017-11-20T03:06:10.752Z,5.72
2017-11-20T03:06:51.284Z,5.76
2017-11-20T03:07:31.813Z,5.85
2017-11-20T03:08:12.348Z,5.81
2017-11-20T03:08:52.868Z,5.85
2017-11-20T03:09:33.393Z,5.86
2017-11-20T03:10:13.915Z,5.83
2017-11-20T03:10:54.429Z,5.79
2017-11-20T03:11:34.952Z,5.86
2017-11-20T03:12:15.455Z,5.85
2017-11-20T03:12:55.975Z,5.83
2017-11-20T03:13:36.485Z,5.83
2017-11-20T03:14:16.993Z,5.78
2017-11-20T03:14:57.527Z,5.74
2017-11-20T03:15:38.042Z,5.82
2017-11-20T03:16:18.579Z,5.81
2017-11-20T03:16:59.098Z,5.78
2017-11-20T03:17:39.628Z,5.79
2017-11-20T03:18:20.148Z,5.81
2017-11-20T03:19:00.681Z,5.79
2017-11-20T03:19:41.216Z,5.72
2017-11-20T03:20:21.746Z,5.75
2017-11-20T03:21:02.277Z,5.68
2017-11-20T03:21:42.803Z,5.78
2017-11-20T03:22:23.335Z,5.71
2017-11-20T03:23:03.894Z,5.67
2017-11-20T03:23:44.422Z,5.78
2017-11-20T03:24:24.953Z,5.72
2017-11-20T03:25:05.466Z,5.67
2017-11-20T03:25:46.000Z,5.65
2017-11-20T03:26:26.526Z,5.75
2017-11-20T03:27:07.049Z,5.81
2017-11-20T03:27:47.548Z,5.68
2017-11-20T03:28:28.078Z,5.61
2017-11-20T03:29:08.600Z,5.64
2017-11-20T03:29:49.115Z,5.63
2017-11-20T03:30:29.626Z,5.65
2017-11-20T03:31:10.153Z,5.64
2017-11-20T03:31:50.671Z,5.71
2017-11-20T03:32:31.180Z,5.65
2017-11-20T03:33:11.706Z,5.68
2017-11-20T03:33:52.232Z,5.61
2017-11-20T03:34:32.746Z,5.64
2017-11-20T03:35:13.274Z,5.61
2017-11-20T03:35:53.808Z,5.61
2017-11-20T03:36:34.327Z,5.65
2017-11-20T03:37:14.842Z,5.65
2017-11-20T03:37:55.346Z,5.68
2017-11-20T03:38:35.875Z,5.71
2017-11-20T03:39:16.387Z,5.71
2017-11-20T03:39:56.917Z,5.76
2017-11-20T03:40:37.440Z,5.64
2017-11-20T03:41:17.960Z,5.65
2017-11-20T03:41:58.489Z,5.63
2017-11-20T03:42:39.019Z,5.57
2017-11-20T03:43:19.552Z,5.68
2017-11-20T03:44:00.083Z,5.71
2017-11-20T03:44:40.605Z,5.64
2017-11-20T03:45:21.130Z,5.6
2017-11-20T03:46:01.672Z,5.61
2017-11-20T03:46:42.301Z,5.65
2017-11-20T03:47:22.816Z,5.63
2017-11-20T03:48:03.345Z,5.65
2017-11-20T03:48:43.883Z,5.65
2017-11-20T03:49:24.415Z,5.65
2017-11-20T03:50:05.021Z,5.51
2017-11-20T03:50:45.541Z,5.49
2017-11-20T03:51:26.055Z,5.65
2017-11-20T03:52:06.583Z,5.64
2017-11-20T03:52:47.111Z,5.61
2017-11-20T03:53:27.645Z,5.6
2017-11-20T03:54:08.174Z,5.6
2017-11-20T03:54:48.702Z,5.57
2017-11-20T03:55:29.281Z,5.64
2017-11-20T03:56:09.824Z,5.54
2017-11-20T03:56:50.334Z,5.51
2017-11-20T03:57:30.867Z,5.58
2017-11-20T03:58:11.389Z,5.54
2017-11-20T03:58:51.908Z,5.51
2017-11-20T03:59:32.439Z,5.56
2017-11-20T04:00:12.967Z,5.56
2017-11-20T04:00:53.473Z,5.56
2017-11-20T04:01:33.994Z,5.45
2017-11-20T04:02:14.524Z,5.54
2017-11-20T04:02:55.018Z,5.43
2017-11-20T04:03:35.538Z,5.51
2017-11-20T04:04:16.066Z,5.43
2017-11-20T04:04:56.592Z,5.45
2017-11-20T04:05:37.115Z,5.38
2017-11-20T04:06:17.639Z,5.38
2017-11-20T04:06:58.167Z,5.35
2017-11-20T04:07:38.684Z,5.28
2017-11-20T04:08:19.239Z,5.36
2017-11-20T04:08:59.719Z,5.36
2017-11-20T04:09:40.230Z,5.33
2017-11-20T04:10:20.747Z,5.43
2017-11-20T04:11:01.272Z,5.36
2017-11-20T04:11:41.807Z,5.36
2017-11-20T04:12:22.346Z,5.38
2017-11-20T04:13:02.869Z,5.4
2017-11-20T04:13:43.394Z,5.28
2017-11-20T04:14:23.918Z,5.4
2017-11-20T04:15:04.448Z,5.33
2017-11-20T04:15:44.978Z,5.38
2017-11-20T04:16:25.492Z,5.39
2017-11-20T04:17:05.993Z,5.39
2017-11-20T04:17:46.524Z,5.38
2017-11-20T04:18:27.030Z,5.27
2017-11-20T04:19:07.560Z,5.28
2017-11-20T04:19:48.083Z,5.36
2017-11-20T04:20:28.614Z,5.27
2017-11-20T04:21:09.136Z,5.28
2017-11-20T04:21:49.657Z,5.39
2017-11-20T04:22:30.198Z,5.38
2017-11-20T04:23:10.716Z,5.28
2017-11-20T04:23:51.228Z,5.35
2017-11-20T04:24:31.761Z,5.33
2017-11-20T04:25:12.306Z,5.36
2017-11-20T04:25:52.843Z,5.42
2017-11-20T04:26:33.361Z,5.31
2017-11-20T04:27:13.889Z,5.35
2017-11-20T04:27:54.441Z,5.36
2017-11-20T04:28:34.946Z,5.36
2017-11-20T04:29:15.464Z,5.35
2017-11-20T04:29:55.976Z,5.39
2017-11-20T04:30:36.494Z,5.36
2017-11-20T04:31:17.042Z,5.35
2017-11-20T04:31:57.539Z,5.36
2017-11-20T04:32:38.060Z,5.48
2017-11-20T04:33:18.572Z,5.33
2017-11-20T04:33:59.086Z,5.43
2017-11-20T04:34:39.639Z,5.35
2017-11-20T04:35:20.168Z,5.43
2017-11-20T04:36:00.664Z,5.36
2017-11-20T04:36:41.195Z,5.45
2017-11-20T04:37:21.754Z,5.46
2017-11-20T04:38:02.286Z,5.49
2017-11-20T04:38:42.837Z,5.51
2017-11-20T04:39:23.367Z,5.48
2017-11-20T04:40:03.891Z,5.49
2017-11-20T04:40:44.409Z,5.49
2017-11-20T04:41:24.940Z,5.45
2017-11-20T04:42:05.471Z,5.49
2017-11-20T04:42:46.002Z,5.53
2017-11-20T04:43:26.538Z,5.56
2017-11-20T04:44:07.065Z,5.48
2017-11-20T04:44:47.598Z,5.49
2017-11-20T04:45:28.118Z,5.51
2017-11-20T04:46:08.648Z,5.53
2017-11-20T04:46:49.186Z,5.49
2017-11-20T04:47:29.707Z,5.45
2017-11-20T04:48:10.233Z,5.51
2017-11-20T04:48:50.755Z,5.49
2017-11-20T04:49:31.281Z,5.57
2017-11-20T04:50:11.792Z,5.54
2017-11-20T04:50:52.328Z,5.51
2017-11-20T04:51:32.856Z,5.61
2017-11-20T04:52:13.403Z,5.43
2017-11-20T04:52:53.885Z,5.49
2017-11-20T04:53:34.417Z,5.43
2017-11-20T04:54:14.947Z,5.49
2017-11-20T04:54:55.471Z,5.51
2017-11-20T04:55:35.996Z,5.51
2017-11-20T04:56:16.496Z,5.46
2017-11-20T04:56:57.040Z,5.49
2017-11-20T04:57:37.577Z,5.49
2017-11-20T04:58:18.095Z,5.46
2017-11-20T04:58:58.619Z,5.49
2017-11-20T04:59:39.161Z,5.49
2017-11-20T05:00:19.695Z,5.48
2017-11-20T05:01:00.230Z,5.48
2017-11-20T05:01:40.745Z,5.48
2017-11-20T05:02:21.274Z,5.49
2017-11-20T05:03:01.787Z,5.51
2017-11-20T05:03:42.313Z,5.4
2017-11-20T05:04:22.841Z,5.43
2017-11-20T05:05:03.383Z,5.46
2017-11-20T05:05:44.313Z,5.45
2017-11-20T05:06:24.834Z,5.53
2017-11-20T05:07:05.355Z,5.46
2017-11-20T05:07:45.884Z,5.43
2017-11-20T05:08:26.420Z,5.48
2017-11-20T05:09:06.931Z,5.43
2017-11-20T05:09:47.453Z,5.49
2017-11-20T05:10:27.972Z,5.49
2017-11-20T05:11:08.489Z,5.48
2017-11-20T05:11:49.013Z,5.49
2017-11-20T05:12:29.556Z,5.48
2017-11-20T05:13:10.073Z,5.48
2017-11-20T05:13:50.605Z,5.46
2017-11-20T05:14:31.138Z,5.48
2017-11-20T05:15:11.642Z,5.45
2017-11-20T05:15:52.158Z,5.4
2017-11-20T05:16:32.689Z,5.42
2017-11-20T05:17:13.200Z,5.39
2017-11-20T05:17:53.726Z,5.45
2017-11-20T05:18:34.246Z,5.43
2017-11-20T05:19:14.774Z,5.36
2017-11-20T05:19:55.426Z,5.42
2017-11-20T05:20:35.932Z,5.28
2017-11-20T05:21:16.466Z,5.35
2017-11-20T05:21:56.987Z,5.36
2017-11-20T05:22:37.500Z,5.45
2017-11-20T05:23:18.014Z,5.36
2017-11-20T05:23:58.517Z,5.39
2017-11-20T05:24:39.043Z,5.42
2017-11-20T05:25:19.564Z,5.39
2017-11-20T05:26:00.108Z,5.36
2017-11-20T05:26:40.622Z,5.25
2017-11-20T05:27:21.144Z,5.35
2017-11-20T05:28:01.672Z,5.39
2017-11-20T05:28:42.187Z,5.35
2017-11-20T05:29:22.705Z,5.31
2017-11-20T05:30:03.225Z,5.38
2017-11-20T05:30:43.718Z,5.25
2017-11-20T05:31:24.229Z,5.24
2017-11-20T05:32:04.758Z,5.28
2017-11-20T05:32:45.271Z,5.28
2017-11-20T05:33:25.801Z,5.28
2017-11-20T05:34:06.349Z,5.22
2017-11-20T05:34:46.863Z,5.21
2017-11-20T05:35:27.380Z,5.13
2017-11-20T05:36:07.913Z,5.13
2017-11-20T05:36:48.446Z,5.17
2017-11-20T05:37:28.971Z,5.17
2017-11-20T05:38:09.492Z,5.1
2017-11-20T05:38:50.021Z,5.04
2017-11-20T05:39:30.558Z,5.07
2017-11-20T05:40:11.081Z,5.04
2017-11-20T05:40:51.596Z,5.09
2017-11-20T05:41:32.110Z,5.1
2017-11-20T05:42:12.713Z,5.04
2017-11-20T05:42:53.236Z,5.02
2017-11-20T05:43:33.762Z,5.07
2017-11-20T05:44:14.285Z,5.06
2017-11-20T05:44:54.822Z,4.97
2017-11-20T05:45:35.322Z,5.06
2017-11-20T05:46:15.927Z,5.03
2017-11-20T05:46:56.442Z,5.02
2017-11-20T05:47:36.980Z,4.91
2017-11-20T05:48:17.491Z,4.96
2017-11-20T05:48:58.028Z,5.06
2017-11-20T05:49:38.532Z,4.99
2017-11-20T05:50:19.072Z,4.97
2017-11-20T05:50:59.597Z,5.06
2017-11-20T05:51:40.112Z,5.02
2017-11-20T05:52:20.614Z,4.92
2017-11-20T05:53:01.155Z,5
2017-11-20T05:53:41.667Z,4.99
2017-11-20T05:54:22.199Z,5
2017-11-20T05:55:02.713Z,4.97
2017-11-20T05:55:43.250Z,4.96
2017-11-20T05:56:23.790Z,4.97
2017-11-20T05:57:04.308Z,4.99
2017-11-20T05:57:44.832Z,4.99
2017-11-20T05:58:25.362Z,4.94
2017-11-20T05:59:05.896Z,5.03
2017-11-20T05:59:46.425Z,5.04
2017-11-20T06:00:26.944Z,5.02
2017-11-20T06:01:07.480Z,5.09
2017-11-20T06:01:47.959Z,4.99
2017-11-20T06:02:28.497Z,5.04
2017-11-20T06:03:09.016Z,5.04
2017-11-20T06:03:49.540Z,5.02
2017-11-20T06:04:30.051Z,5.12
2017-11-20T06:05:10.585Z,5.04
2017-11-20T06:05:51.110Z,5.09
2017-11-20T06:06:31.632Z,5.09
2017-11-20T06:07:12.142Z,5.09
2017-11-20T06:07:52.653Z,5.13
2017-11-20T06:08:33.173Z,5.1
2017-11-20T06:09:13.710Z,5.12
2017-11-20T06:09:54.220Z,5.13
2017-11-20T06:10:34.739Z,5.13
2017-11-20T06:11:15.270Z,5.07
2017-11-20T06:11:55.781Z,5.09
2017-11-20T06:12:36.301Z,5.09
2017-11-20T06:13:16.823Z,5.07
2017-11-20T06:13:57.342Z,5.06
2017-11-20T06:14:37.836Z,5.03
2017-11-20T06:15:18.340Z,5.12
2017-11-20T06:15:58.866Z,5.09
2017-11-20T06:16:39.372Z,5.1
2017-11-20T06:17:19.904Z,5.1
2017-11-20T06:18:00.404Z,5.1
2017-11-20T06:18:40.915Z,5.1
2017-11-20T06:19:21.435Z,5.1
2017-11-20T06:20:01.962Z,5.07
2017-11-20T06:20:42.607Z,5.17
2017-11-20T06:21:23.132Z,5.1
2017-11-20T06:22:03.663Z,5.1
2017-11-20T06:22:44.187Z,5.2
2017-11-20T06:23:24.716Z,5.15
2017-11-20T06:24:05.249Z,5.18
2017-11-20T06:24:45.768Z,5.2
2017-11-20T06:25:26.317Z,5.15
2017-11-20T06:26:06.836Z,5.24
2017-11-20T06:26:47.351Z,5.12
2017-11-20T06:27:27.868Z,5.13
2017-11-20T06:28:08.391Z,5.12
2017-11-20T06:28:48.925Z,5.12
2017-11-20T06:29:29.469Z,5.15
2017-11-20T06:30:09.996Z,5.1
2017-11-20T06:30:50.513Z,5.2
2017-11-20T06:31:31.043Z,5.12
2017-11-20T06:32:11.570Z,5.13
2017-11-20T06:32:52.107Z,5.09
2017-11-20T06:33:32.591Z,5.22
2017-11-20T06:34:13.101Z,5.13
2017-11-20T06:34:53.632Z,5.2
2017-11-20T06:35:34.152Z,5.27
2017-11-20T06:36:14.684Z,5.2
2017-11-20T06:36:55.220Z,5.2
2017-11-20T06:37:35.742Z,5.22
2017-11-20T06:38:16.264Z,5.18
2017-11-20T06:38:56.783Z,5.18
2017-11-20T06:39:37.323Z,5.27
2017-11-20T06:40:17.851Z,5.22
2017-11-20T06:40:58.379Z,5.2
2017-11-20T06:41:38.896Z,5.25
2017-11-20T06:42:19.444Z,5.22
2017-11-20T06:42:59.978Z,5.22
2017-11-20T06:43:40.598Z,5.25
2017-11-20T06:44:21.078Z,5.22
2017-11-20T06:45:01.579Z,5.13
2017-11-20T06:45:42.085Z,5.27
2017-11-20T06:46:22.627Z,5.22
2017-11-20T06:47:03.142Z,5.22
2017-11-20T06:47:43.650Z,5.15
2017-11-20T06:48:24.157Z,5.22
2017-11-20T06:49:04.677Z,5.27
2017-11-20T06:49:45.191Z,5.27
2017-11-20T06:50:25.710Z,5.2
2017-11-20T06:51:06.238Z,5.21
2017-11-20T06:51:46.768Z,5.15
2017-11-20T06:52:27.273Z,5.13
2017-11-20T06:53:07.794Z,5.2
2017-11-20T06:53:48.303Z,5.2
2017-11-20T06:54:28.806Z,5.17
2017-11-20T06:55:09.324Z,5.2
2017-11-20T06:55:49.850Z,5.2
2017-11-20T06:56:30.376Z,5.15
2017-11-20T06:57:10.922Z,5.2
2017-11-20T06:57:51.443Z,5.25
2017-11-20T06:58:31.988Z,5.15
2017-11-20T06:59:12.457Z,5.24
2017-11-20T06:59:52.990Z,5.18
2017-11-20T07:00:33.528Z,5.27
2017-11-20T07:01:14.028Z,5.21
2017-11-20T07:01:54.549Z,5.28
2017-11-20T07:02:35.042Z,5.28
2017-11-20T07:03:15.571Z,5.31
2017-11-20T07:03:56.080Z,5.22
2017-11-20T07:04:36.583Z,5.31
2017-11-20T07:05:17.107Z,5.31
2017-11-20T07:05:57.628Z,5.3
2017-11-20T07:06:38.130Z,5.2
2017-11-20T07:07:18.636Z,5.31
2017-11-20T07:07:59.159Z,5.28
2017-11-20T07:08:39.691Z,5.36
2017-11-20T07:09:20.192Z,5.25
2017-11-20T07:10:00.721Z,5.22
2017-11-20T07:10:41.235Z,5.31
2017-11-20T07:11:21.738Z,5.31
2017-11-20T07:12:02.272Z,5.4
2017-11-20T07:12:42.778Z,5.31
2017-11-20T07:13:23.301Z,5.24
2017-11-20T07:14:03.824Z,5.25
2017-11-20T07:14:44.382Z,5.38
2017-11-20T07:15:24.891Z,5.33
2017-11-20T07:16:05.413Z,5.4
2017-11-20T07:16:45.928Z,5.39
2017-11-20T07:17:26.484Z,5.36
2017-11-20T07:18:06.964Z,5.38
2017-11-20T07:18:47.476Z,5.35
2017-11-20T07:19:28.024Z,5.39
2017-11-20T07:20:08.535Z,5.39
2017-11-20T07:20:49.068Z,5.39
2017-11-20T07:21:29.605Z,5.28
2017-11-20T07:22:10.123Z,5.27
2017-11-20T07:22:50.642Z,5.38
2017-11-20T07:23:31.149Z,5.33
2017-11-20T07:24:11.677Z,5.33
2017-11-20T07:24:52.193Z,5.42
2017-11-20T07:25:32.711Z,5.38
2017-11-20T07:26:13.219Z,5.45
2017-11-20T07:26:53.715Z,5.49
2017-11-20T07:27:34.221Z,5.43
2017-11-20T07:28:14.749Z,5.46
2017-11-20T07:28:55.268Z,5.43
2017-11-20T07:29:35.795Z,5.49
2017-11-20T07:30:16.333Z,5.43
2017-11-20T07:30:57.487Z,5.4
2017-11-20T07:31:37.977Z,5.43
2017-11-20T07:32:19.590Z,5.46
2017-11-20T07:33:00.121Z,5.46
2017-11-20T07:33:40.640Z,5.48
2017-11-20T07:34:21.152Z,5.46
2017-11-20T07:35:01.676Z,5.48
2017-11-20T07:35:42.195Z,5.48
2017-11-20T07:36:22.740Z,5.53
2017-11-20T07:37:03.229Z,5.46
2017-11-20T07:37:43.754Z,5.46
2017-11-20T07:38:24.276Z,5.51
2017-11-20T07:39:04.784Z,5.51
2017-11-20T07:39:45.329Z,5.43
2017-11-20T07:40:25.853Z,5.43
2017-11-20T07:41:06.379Z,5.43
2017-11-20T07:41:46.915Z,5.53
2017-11-20T07:42:27.416Z,5.51
2017-11-20T07:43:07.942Z,5.54
2017-11-20T07:43:48.455Z,5.45
2017-11-20T07:44:28.972Z,5.54
2017-11-20T07:45:09.467Z,5.51
2017-11-20T07:45:49.999Z,5.56
2017-11-20T07:46:30.506Z,5.58
2017-11-20T07:47:11.031Z,5.56
2017-11-20T07:47:51.559Z,5.61
2017-11-20T07:48:32.102Z,5.61
2017-11-20T07:49:12.629Z,5.64
2017-11-20T07:49:53.151Z,5.51
2017-11-20T07:50:33.667Z,5.49
2017-11-20T07:51:14.197Z,5.49
2017-11-20T07:51:54.727Z,5.64
2017-11-20T07:52:35.254Z,5.58
2017-11-20T07:53:15.778Z,5.57
2017-11-20T07:53:56.305Z,5.63
2017-11-20T07:54:36.812Z,5.68
2017-11-20T07:55:17.344Z,5.67
2017-11-20T07:55:57.868Z,5.64
2017-11-20T07:56:38.402Z,5.61
2017-11-20T07:57:18.928Z,5.61
2017-11-20T07:57:59.448Z,5.61
2017-11-20T07:58:39.961Z,5.58
2017-11-20T07:59:20.481Z,5.58
2017-11-20T08:00:01.022Z,5.63
2017-11-20T08:00:41.540Z,5.54
2017-11-20T08:01:22.057Z,5.54
2017-11-20T08:02:02.573Z,5.54
2017-11-20T08:02:43.095Z,5.64
2017-11-20T08:03:23.612Z,5.46
2017-11-20T08:04:04.162Z,5.54
2017-11-20T08:04:44.679Z,5.49
2017-11-20T08:05:25.216Z,5.54
2017-11-20T08:06:05.739Z,5.58
2017-11-20T08:06:46.281Z,5.57
2017-11-20T08:07:26.790Z,5.57
2017-11-20T08:08:07.322Z,5.56
2017-11-20T08:08:47.827Z,5.53
2017-11-20T08:09:28.343Z,5.56
2017-11-20T08:10:08.878Z,5.42
2017-11-20T08:10:49.396Z,5.51
2017-11-20T08:11:29.924Z,5.49
2017-11-20T08:12:10.422Z,5.48
2017-11-20T08:12:50.954Z,5.4
2017-11-20T08:13:31.469Z,5.39
2017-11-20T08:14:12.014Z,5.42
2017-11-20T08:14:52.535Z,5.36
2017-11-20T08:15:33.068Z,5.31
2017-11-20T08:16:13.577Z,5.42
2017-11-20T08:16:54.116Z,5.39
2017-11-20T08:17:34.646Z,5.3
2017-11-20T08:18:15.164Z,5.33
2017-11-20T08:18:55.688Z,5.42
2017-11-20T08:19:36.204Z,5.36
2017-11-20T08:20:16.738Z,5.38
2017-11-20T08:20:57.265Z,5.45
2017-11-20T08:21:37.788Z,5.4
2017-11-20T08:22:18.534Z,5.36
2017-11-20T08:22:59.090Z,5.36
2017-11-20T08:23:39.623Z,5.4
2017-11-20T08:24:20.180Z,5.43
2017-11-20T08:25:00.692Z,5.39
2017-11-20T08:25:41.214Z,5.45
2017-11-20T08:26:21.739Z,5.43
2017-11-20T08:27:02.263Z,5.43
2017-11-20T08:27:42.776Z,5.49
2017-11-20T08:28:23.283Z,5.43
2017-11-20T08:29:03.840Z,5.43
2017-11-20T08:29:44.379Z,5.57
2017-11-20T08:30:24.915Z,5.54
2017-11-20T08:31:05.421Z,5.45
2017-11-20T08:31:45.989Z,5.43
2017-11-20T08:32:26.570Z,5.53
2017-11-20T08:33:07.078Z,5.53
2017-11-20T08:33:47.594Z,5.48
2017-11-20T08:34:28.134Z,5.51
2017-11-20T08:35:08.672Z,5.49
2017-11-20T08:35:49.181Z,5.49
2017-11-20T08:36:29.694Z,5.48
2017-11-20T08:37:10.204Z,5.57
2017-11-20T08:37:50.730Z,5.54
2017-11-20T08:38:31.252Z,5.58
2017-11-20T08:39:11.739Z,5.56
2017-11-20T08:39:52.255Z,5.57
2017-11-20T08:40:32.769Z,5.58
2017-11-20T08:41:13.289Z,5.53
2017-11-20T08:41:53.805Z,5.56
2017-11-20T08:42:34.297Z,5.6
2017-11-20T08:43:14.829Z,5.51
2017-11-20T08:43:55.353Z,5.61
2017-11-20T08:44:35.870Z,5.51
2017-11-20T08:45:16.406Z,5.6
2017-11-20T08:45:56.943Z,5.56
2017-11-20T08:46:37.465Z,5.48
2017-11-20T08:47:17.988Z,5.51
2017-11-20T08:47:58.513Z,5.6
2017-11-20T08:48:39.013Z,5.68
2017-11-20T08:49:19.542Z,5.61
2017-11-20T08:50:00.074Z,5.68
2017-11-20T08:50:40.617Z,5.61
2017-11-20T08:51:21.137Z,5.67
2017-11-20T08:52:01.662Z,5.63
2017-11-20T08:52:42.167Z,5.61
2017-11-20T08:53:22.720Z,5.64
2017-11-20T08:54:03.201Z,5.68
2017-11-20T08:54:43.727Z,5.68
2017-11-20T08:55:24.372Z,5.68
2017-11-20T08:56:04.877Z,5.68
2017-11-20T08:56:45.381Z,5.6
2017-11-20T08:57:25.886Z,5.61
2017-11-20T08:58:06.406Z,5.61
2017-11-20T08:58:46.917Z,5.61
2017-11-20T08:59:27.444Z,5.64
2017-11-20T09:00:07.966Z,5.63
2017-11-20T09:00:48.488Z,5.6
2017-11-20T09:01:29.013Z,5.65